createdAt,value
2023-02-26T00:01:55.037Z,15.43
2023-02-26T00:04:21.328Z,15.43
2023-02-26T00:06:47.725Z,15.42
2023-02-26T00:09:14.059Z,15.41
2023-02-26T00:11:40.427Z,15.42
2023-02-26T00:14:06.746Z,15.41
2023-02-26T00:16:33.172Z,15.42
2023-02-26T00:18:59.539Z,15.42
2023-02-26T00:21:25.871Z,15.42
2023-02-26T00:23:52.182Z,15.41
2023-02-26T00:26:18.530Z,15.41
2023-02-26T00:28:44.917Z,15.41
2023-02-26T00:31:11.804Z,15.41
2023-02-26T00:33:38.094Z,15.41
2023-02-26T00:36:04.474Z,15.41
2023-02-26T00:38:30.824Z,15.40
2023-02-26T00:40:57.162Z,15.40
2023-02-26T00:43:23.487Z,15.39
2023-02-26T00:45:49.878Z,15.38
2023-02-26T00:48:16.529Z,15.38
2023-02-26T00:50:42.899Z,15.37
2023-02-26T00:53:09.262Z,15.36
2023-02-26T00:55:35.652Z,15.35
2023-02-26T00:58:02.241Z,15.35
2023-02-26T01:00:28.563Z,15.34
2023-02-26T01:02:54.871Z,15.34
2023-02-26T01:05:21.273Z,15.33
2023-02-26T01:07:47.627Z,15.32
2023-02-26T01:10:13.998Z,15.31
2023-02-26T01:12:40.360Z,15.29
2023-02-26T01:15:06.730Z,15.28
2023-02-26T01:17:33.091Z,15.29
2023-02-26T01:19:59.591Z,15.28
2023-02-26T01:22:25.943Z,15.28
2023-02-26T01:24:52.328Z,15.27
2023-02-26T01:27:18.668Z,15.27
2023-02-26T01:29:45.011Z,15.26
2023-02-26T01:32:11.512Z,15.26
2023-02-26T01:34:37.767Z,15.26
2023-02-26T01:37:04.149Z,15.26
2023-02-26T01:39:30.515Z,15.25
2023-02-26T01:41:56.978Z,15.24
2023-02-26T01:44:23.354Z,15.24
2023-02-26T01:46:49.814Z,15.24
2023-02-26T01:49:16.084Z,15.22
2023-02-26T01:51:42.462Z,15.22
2023-02-26T01:54:08.836Z,15.22
2023-02-26T01:56:35.195Z,15.21
2023-02-26T01:59:01.504Z,15.21
2023-02-26T02:01:27.898Z,15.20
2023-02-26T02:03:54.215Z,15.19
2023-02-26T02:06:20.611Z,15.19
2023-02-26T02:08:46.935Z,15.17
2023-02-26T02:11:13.311Z,15.16
2023-02-26T02:13:39.664Z,15.15
2023-02-26T02:16:06.104Z,15.15
2023-02-26T02:18:32.375Z,15.15
2023-02-26T02:20:58.803Z,15.14
2023-02-26T02:23:25.161Z,15.14
2023-02-26T02:25:51.490Z,15.13
2023-02-26T02:28:17.860Z,15.12
2023-02-26T02:30:44.253Z,15.12
2023-02-26T02:33:10.565Z,15.12
2023-02-26T02:35:36.956Z,15.11
2023-02-26T02:38:03.346Z,15.11
2023-02-26T02:40:29.685Z,15.11
2023-02-26T02:42:56.055Z,15.12
2023-02-26T02:45:22.424Z,15.11
2023-02-26T02:47:48.739Z,15.11
2023-02-26T02:50:15.118Z,15.12
2023-02-26T02:52:41.481Z,15.11
2023-02-26T02:55:07.852Z,15.11
2023-02-26T02:57:34.210Z,15.11
2023-02-26T03:00:00.550Z,15.11
2023-02-26T03:02:26.965Z,15.11
2023-02-26T03:04:53.233Z,15.10
2023-02-26T03:07:19.609Z,15.09
2023-02-26T03:09:45.978Z,15.09
2023-02-26T03:12:12.373Z,15.08
2023-02-26T03:14:38.708Z,15.08
2023-02-26T03:17:05.027Z,15.07
2023-02-26T03:19:31.452Z,15.08
2023-02-26T03:21:57.776Z,15.07
2023-02-26T03:24:24.160Z,15.07
2023-02-26T03:26:50.471Z,15.08
2023-02-26T03:29:16.808Z,15.09
2023-02-26T03:31:43.199Z,15.10
2023-02-26T03:34:09.518Z,15.11
2023-02-26T03:36:35.876Z,15.11
2023-02-26T03:39:02.248Z,15.12
2023-02-26T03:41:28.567Z,15.13
2023-02-26T03:43:54.920Z,15.13
2023-02-26T03:46:21.310Z,15.15
2023-02-26T03:48:47.643Z,15.15
2023-02-26T03:51:13.982Z,15.15
2023-02-26T03:53:40.316Z,15.15
2023-02-26T03:56:06.725Z,15.14
2023-02-26T03:58:33.061Z,15.14
2023-02-26T04:00:59.415Z,15.14
2023-02-26T04:03:25.764Z,15.13
2023-02-26T04:05:52.127Z,15.14
2023-02-26T04:08:18.513Z,15.14
2023-02-26T04:10:44.864Z,15.14
2023-02-26T04:13:11.244Z,15.14
2023-02-26T04:15:37.556Z,15.14
2023-02-26T04:18:04.159Z,15.14
2023-02-26T04:20:30.524Z,15.13
2023-02-26T04:22:56.905Z,15.12
2023-02-26T04:25:23.264Z,15.11
2023-02-26T04:27:49.594Z,15.10
2023-02-26T04:30:15.984Z,15.10
2023-02-26T04:32:42.273Z,15.09
2023-02-26T04:35:08.595Z,15.09
2023-02-26T04:37:34.939Z,15.08
2023-02-26T04:40:01.349Z,15.07
2023-02-26T04:42:27.736Z,15.07
2023-02-26T04:44:54.037Z,15.08
2023-02-26T04:47:20.469Z,15.09
2023-02-26T04:49:46.823Z,15.08
2023-02-26T04:52:13.214Z,15.08
2023-02-26T04:54:39.599Z,15.07
2023-02-26T04:57:05.937Z,15.07
2023-02-26T04:59:32.381Z,15.05
2023-02-26T05:01:58.791Z,15.04
2023-02-26T05:04:25.116Z,15.01
2023-02-26T05:06:51.412Z,15.00
2023-02-26T05:09:17.754Z,14.99
2023-02-26T05:11:44.141Z,14.97
2023-02-26T05:14:10.455Z,14.95
2023-02-26T05:16:36.894Z,14.94
2023-02-26T05:19:03.257Z,14.92
2023-02-26T05:21:29.626Z,14.90
2023-02-26T05:23:55.944Z,14.89
2023-02-26T05:26:22.347Z,14.88
2023-02-26T05:28:48.643Z,14.87
2023-02-26T05:31:15.107Z,14.88
2023-02-26T05:33:41.384Z,14.87
2023-02-26T05:36:07.796Z,14.88
2023-02-26T05:38:34.128Z,14.91
2023-02-26T05:41:00.505Z,14.95
2023-02-26T05:43:26.824Z,14.98
2023-02-26T05:45:53.208Z,15.02
2023-02-26T05:48:19.510Z,15.06
2023-02-26T05:50:45.938Z,15.09
2023-02-26T05:53:12.252Z,15.14
2023-02-26T05:55:38.593Z,15.16
2023-02-26T05:58:04.934Z,15.19
2023-02-26T06:00:31.313Z,15.20
2023-02-26T06:02:57.700Z,15.22
2023-02-26T06:05:24.069Z,15.23
2023-02-26T06:07:50.433Z,15.26
2023-02-26T06:10:16.796Z,15.29
2023-02-26T06:12:43.166Z,15.31
2023-02-26T06:15:09.614Z,15.36
2023-02-26T06:17:35.976Z,15.43
2023-02-26T06:20:02.416Z,15.49
2023-02-26T06:22:28.778Z,15.59
2023-02-26T06:24:55.171Z,15.68
2023-02-26T06:27:21.510Z,15.78
2023-02-26T06:29:47.848Z,15.88
2023-02-26T06:32:14.437Z,15.97
2023-02-26T06:34:40.625Z,16.04
2023-02-26T06:37:06.947Z,16.11
2023-02-26T06:39:33.344Z,16.17
2023-02-26T06:41:59.669Z,16.22
2023-02-26T06:44:26.450Z,16.26
2023-02-26T06:46:52.811Z,16.32
2023-02-26T06:49:19.157Z,16.39
2023-02-26T06:51:45.520Z,16.48
2023-02-26T06:54:11.941Z,16.57
2023-02-26T06:56:38.256Z,16.69
2023-02-26T06:59:04.598Z,16.82
2023-02-26T07:01:31.156Z,16.96
2023-02-26T07:03:57.439Z,17.11
2023-02-26T07:06:27.790Z,17.28
2023-02-26T07:08:50.157Z,17.44
2023-02-26T07:11:16.486Z,17.60
2023-02-26T07:13:42.911Z,17.76
2023-02-26T07:16:09.275Z,17.93
2023-02-26T07:18:35.627Z,18.09
2023-02-26T07:21:01.939Z,18.27
2023-02-26T07:23:28.347Z,18.38
2023-02-26T07:25:54.692Z,18.45
2023-02-26T07:28:21.207Z,18.51
2023-02-26T07:30:47.646Z,18.57
2023-02-26T07:33:14.304Z,18.63
2023-02-26T07:35:40.710Z,18.66
2023-02-26T07:38:07.677Z,18.58
2023-02-26T07:40:34.031Z,18.35
2023-02-26T07:43:00.954Z,18.17
2023-02-26T07:45:27.300Z,17.99
2023-02-26T07:47:53.654Z,18.00
2023-02-26T07:50:20.028Z,18.12
2023-02-26T07:52:46.406Z,18.23
2023-02-26T07:55:12.765Z,18.32
2023-02-26T07:57:40.498Z,18.40
2023-02-26T08:00:09.470Z,18.51
2023-02-26T08:02:33.216Z,18.59
2023-02-26T08:04:59.547Z,18.66
2023-02-26T08:07:25.894Z,18.73
2023-02-26T08:09:52.500Z,18.79
2023-02-26T08:12:18.834Z,18.84
2023-02-26T08:14:45.184Z,18.90
2023-02-26T08:17:11.921Z,18.96
2023-02-26T08:19:38.457Z,19.03
2023-02-26T08:22:04.837Z,19.09
2023-02-26T08:24:31.506Z,19.16
2023-02-26T08:26:57.883Z,19.24
2023-02-26T08:29:24.370Z,19.32
2023-02-26T08:31:50.915Z,19.41
2023-02-26T08:34:17.166Z,19.50
2023-02-26T08:36:43.540Z,19.59
2023-02-26T08:39:09.930Z,19.67
2023-02-26T08:41:36.287Z,19.74
2023-02-26T08:44:02.769Z,19.80
2023-02-26T08:46:29.640Z,19.87
2023-02-26T08:48:55.556Z,19.95
2023-02-26T08:51:21.943Z,19.99
2023-02-26T08:53:48.302Z,20.02
2023-02-26T08:56:14.691Z,20.06
2023-02-26T08:58:41.022Z,20.10
2023-02-26T09:01:07.364Z,20.19
2023-02-26T09:03:33.912Z,20.26
2023-02-26T09:06:00.332Z,20.35
2023-02-26T09:08:26.954Z,20.38
2023-02-26T09:10:53.342Z,20.46
2023-02-26T09:13:19.657Z,20.53
2023-02-26T09:15:46.118Z,20.54
2023-02-26T09:18:12.515Z,20.56
2023-02-26T09:20:39.018Z,20.51
2023-02-26T09:23:05.395Z,20.29
2023-02-26T09:25:31.818Z,20.11
2023-02-26T09:27:58.988Z,20.07
2023-02-26T09:30:24.517Z,20.10
2023-02-26T09:32:51.620Z,20.12
2023-02-26T09:35:18.238Z,20.05
2023-02-26T09:37:44.830Z,19.94
2023-02-26T09:40:11.214Z,19.84
2023-02-26T09:42:37.527Z,19.89
2023-02-26T09:45:03.909Z,20.07
2023-02-26T09:47:30.256Z,20.26
2023-02-26T09:49:56.589Z,20.42
2023-02-26T09:52:22.946Z,20.68
2023-02-26T09:54:49.346Z,20.95
2023-02-26T09:57:15.655Z,21.23
2023-02-26T09:59:42.046Z,21.51
2023-02-26T10:02:08.475Z,21.79
2023-02-26T10:04:34.891Z,22.02
2023-02-26T10:07:01.131Z,22.22
2023-02-26T10:09:27.489Z,22.48
2023-02-26T10:11:53.841Z,22.93
2023-02-26T10:14:20.173Z,23.37
2023-02-26T10:16:46.673Z,23.77
2023-02-26T10:19:12.925Z,24.08
2023-02-26T10:21:39.274Z,24.31
2023-02-26T10:24:05.662Z,24.48
2023-02-26T10:26:32.133Z,24.70
2023-02-26T10:28:58.473Z,24.84
2023-02-26T10:31:25.218Z,24.95
2023-02-26T10:33:51.223Z,25.13
2023-02-26T10:36:17.951Z,25.41
2023-02-26T10:38:44.275Z,25.71
2023-02-26T10:41:10.644Z,25.96
2023-02-26T10:43:37.044Z,26.18
2023-02-26T10:46:03.499Z,26.36
2023-02-26T10:48:29.812Z,26.52
2023-02-26T10:50:56.228Z,26.67
2023-02-26T10:53:22.810Z,26.77
2023-02-26T10:55:49.150Z,26.85
2023-02-26T10:58:15.488Z,26.92
2023-02-26T11:00:41.825Z,26.99
2023-02-26T11:03:08.177Z,27.05
2023-02-26T11:05:34.633Z,27.05
2023-02-26T11:08:01.027Z,26.97
2023-02-26T11:10:27.446Z,26.86
2023-02-26T11:12:53.819Z,26.67
2023-02-26T11:15:20.122Z,26.48
2023-02-26T11:17:46.468Z,26.26
2023-02-26T11:20:12.815Z,26.03
2023-02-26T11:22:39.144Z,25.78
2023-02-26T11:25:05.520Z,25.55
2023-02-26T11:27:31.917Z,25.34
2023-02-26T11:29:59.283Z,25.10
2023-02-26T11:32:25.979Z,24.89
2023-02-26T11:34:52.162Z,24.71
2023-02-26T11:37:18.476Z,24.54
2023-02-26T11:39:44.835Z,24.44
2023-02-26T11:42:11.164Z,24.32
2023-02-26T11:44:37.471Z,24.21
2023-02-26T11:47:03.819Z,24.09
2023-02-26T11:49:30.192Z,24.00
2023-02-26T11:51:56.649Z,23.89
2023-02-26T11:54:22.958Z,23.79
2023-02-26T11:56:49.572Z,23.69
2023-02-26T11:59:15.953Z,23.63
2023-02-26T12:01:42.260Z,23.56
2023-02-26T12:04:08.650Z,23.53
2023-02-26T12:06:35.180Z,23.54
2023-02-26T12:09:01.561Z,23.53
2023-02-26T12:11:28.424Z,23.55
2023-02-26T12:13:54.299Z,23.61
2023-02-26T12:16:20.669Z,23.66
2023-02-26T12:18:46.975Z,23.74
2023-02-26T12:21:13.337Z,23.77
2023-02-26T12:23:39.686Z,23.75
2023-02-26T12:26:06.125Z,23.71
2023-02-26T12:28:32.512Z,23.65
2023-02-26T12:30:59.707Z,23.60
2023-02-26T12:33:26.253Z,23.54
2023-02-26T12:35:52.614Z,23.50
2023-02-26T12:38:19.008Z,23.47
2023-02-26T12:40:45.366Z,23.45
2023-02-26T12:43:11.725Z,23.48
2023-02-26T12:45:38.069Z,23.56
2023-02-26T12:48:04.405Z,23.66
2023-02-26T12:50:30.809Z,23.73
2023-02-26T12:52:57.177Z,23.81
2023-02-26T12:55:23.500Z,23.81
2023-02-26T12:57:50.032Z,23.79
2023-02-26T13:00:16.403Z,23.74
2023-02-26T13:02:42.809Z,23.67
2023-02-26T13:05:09.109Z,23.60
2023-02-26T13:07:35.462Z,23.50
2023-02-26T13:10:01.787Z,23.42
2023-02-26T13:12:28.239Z,23.32
2023-02-26T13:14:54.559Z,23.23
2023-02-26T13:17:20.900Z,23.15
2023-02-26T13:19:47.252Z,23.09
2023-02-26T13:22:13.593Z,23.03
2023-02-26T13:24:39.947Z,22.98
2023-02-26T13:27:06.342Z,22.95
2023-02-26T13:29:32.683Z,22.93
2023-02-26T13:31:59.215Z,22.94
2023-02-26T13:34:25.356Z,22.99
2023-02-26T13:36:51.719Z,23.06
2023-02-26T13:39:18.064Z,23.13
2023-02-26T13:41:44.444Z,23.19
2023-02-26T13:44:13.744Z,23.24
2023-02-26T13:46:40.084Z,23.25
2023-02-26T13:49:06.405Z,23.22
2023-02-26T13:51:32.802Z,23.17
2023-02-26T13:53:59.161Z,23.11
2023-02-26T13:56:25.507Z,23.04
2023-02-26T13:58:51.876Z,22.97
2023-02-26T14:01:18.302Z,22.91
2023-02-26T14:03:44.582Z,22.86
2023-02-26T14:06:10.995Z,22.80
2023-02-26T14:08:37.329Z,22.75
2023-02-26T14:11:03.733Z,22.71
2023-02-26T14:13:30.131Z,22.67
2023-02-26T14:15:56.474Z,22.65
2023-02-26T14:18:22.836Z,22.61
2023-02-26T14:20:49.222Z,22.55
2023-02-26T14:23:15.581Z,22.52
2023-02-26T14:25:41.978Z,22.47
2023-02-26T14:28:08.289Z,22.43
2023-02-26T14:30:34.704Z,22.38
2023-02-26T14:33:01.018Z,22.32
2023-02-26T14:35:27.363Z,22.26
2023-02-26T14:37:53.784Z,22.20
2023-02-26T14:40:20.142Z,22.16
2023-02-26T14:42:46.457Z,22.11
2023-02-26T14:45:12.905Z,22.05
2023-02-26T14:47:39.288Z,21.99
2023-02-26T14:50:05.604Z,21.92
2023-02-26T14:52:31.960Z,21.87
2023-02-26T14:54:58.352Z,21.81
2023-02-26T14:57:24.846Z,21.76
2023-02-26T14:59:51.212Z,21.71
2023-02-26T15:02:17.717Z,21.64
2023-02-26T15:04:43.979Z,21.57
2023-02-26T15:07:10.351Z,21.51
2023-02-26T15:09:36.693Z,21.46
2023-02-26T15:12:03.044Z,21.41
2023-02-26T15:14:29.455Z,21.38
2023-02-26T15:16:55.772Z,21.33
2023-02-26T15:19:22.155Z,21.28
2023-02-26T15:21:48.527Z,21.23
2023-02-26T15:24:14.893Z,21.18
2023-02-26T15:26:41.266Z,21.14
2023-02-26T15:29:07.604Z,21.09
2023-02-26T15:31:34.134Z,21.07
2023-02-26T15:34:00.379Z,21.03
2023-02-26T15:36:26.996Z,20.96
2023-02-26T15:38:53.038Z,20.90
2023-02-26T15:41:19.368Z,20.87
2023-02-26T15:43:45.754Z,20.85
2023-02-26T15:46:12.174Z,20.82
2023-02-26T15:48:38.501Z,20.78
2023-02-26T15:51:04.847Z,20.74
2023-02-26T15:53:31.193Z,20.67
2023-02-26T15:55:57.598Z,20.63
2023-02-26T15:58:24.513Z,20.58
2023-02-26T16:00:51.034Z,20.52
2023-02-26T16:03:17.485Z,20.47
2023-02-26T16:05:43.812Z,20.44
2023-02-26T16:08:10.185Z,20.38
2023-02-26T16:10:36.502Z,20.30
2023-02-26T16:13:02.849Z,20.24
2023-02-26T16:15:29.181Z,20.16
2023-02-26T16:17:55.631Z,20.12
2023-02-26T16:20:21.952Z,20.02
2023-02-26T16:22:48.332Z,19.96
2023-02-26T16:25:14.836Z,19.90
2023-02-26T16:27:41.214Z,19.82
2023-02-26T16:30:07.544Z,19.77
2023-02-26T16:32:34.021Z,19.68
2023-02-26T16:35:00.362Z,19.62
2023-02-26T16:37:26.785Z,19.54
2023-02-26T16:39:53.125Z,19.48
2023-02-26T16:42:19.471Z,19.41
2023-02-26T16:44:45.838Z,19.38
2023-02-26T16:47:12.480Z,19.34
2023-02-26T16:49:38.861Z,19.30
2023-02-26T16:52:05.196Z,19.27
2023-02-26T16:54:32.716Z,19.28
2023-02-26T16:56:59.559Z,19.29
2023-02-26T16:59:25.914Z,19.27
2023-02-26T17:01:52.294Z,19.24
2023-02-26T17:04:19.733Z,19.19
2023-02-26T17:06:46.089Z,19.13
2023-02-26T17:09:12.415Z,19.11
2023-02-26T17:11:39.034Z,19.07
2023-02-26T17:14:05.941Z,19.05
2023-02-26T17:16:32.367Z,19.05
2023-02-26T17:18:58.652Z,19.05
2023-02-26T17:21:25.315Z,19.05
2023-02-26T17:23:51.735Z,19.04
2023-02-26T17:26:18.113Z,18.99
2023-02-26T17:28:44.471Z,18.95
2023-02-26T17:31:14.048Z,18.91
2023-02-26T17:33:40.391Z,18.87
2023-02-26T17:36:06.732Z,18.88
2023-02-26T17:38:33.121Z,18.89
2023-02-26T17:40:59.501Z,18.84
2023-02-26T17:43:26.850Z,18.81
2023-02-26T17:45:53.333Z,18.81
2023-02-26T17:48:19.647Z,18.83
2023-02-26T17:50:45.984Z,18.84
2023-02-26T17:53:12.592Z,18.86
2023-02-26T17:55:39.147Z,18.84
2023-02-26T17:58:05.490Z,18.84
2023-02-26T18:00:31.866Z,18.82
2023-02-26T18:02:58.231Z,18.79
2023-02-26T18:05:24.594Z,18.74
2023-02-26T18:07:50.923Z,18.74
2023-02-26T18:10:17.313Z,18.74
2023-02-26T18:12:43.714Z,18.73
2023-02-26T18:15:10.104Z,18.72
2023-02-26T18:17:36.461Z,18.70
2023-02-26T18:20:02.810Z,18.67
2023-02-26T18:22:29.139Z,18.63
2023-02-26T18:24:55.571Z,18.60
2023-02-26T18:27:21.967Z,18.62
2023-02-26T18:29:48.589Z,18.62
2023-02-26T18:32:15.182Z,18.65
2023-02-26T18:34:41.312Z,18.63
2023-02-26T18:37:07.657Z,18.59
2023-02-26T18:39:34.286Z,18.61
2023-02-26T18:42:00.615Z,18.61
2023-02-26T18:44:26.986Z,18.57
2023-02-26T18:46:53.311Z,18.56
2023-02-26T18:49:19.673Z,18.53
2023-02-26T18:51:46.040Z,18.47
2023-02-26T18:54:12.690Z,18.50
2023-02-26T18:56:39.066Z,18.50
2023-02-26T18:59:05.429Z,18.50
2023-02-26T19:01:32.126Z,18.49
2023-02-26T19:03:58.333Z,18.45
2023-02-26T19:06:24.712Z,18.38
2023-02-26T19:08:51.115Z,18.33
2023-02-26T19:11:17.423Z,18.27
2023-02-26T19:13:45.441Z,18.23
2023-02-26T19:16:10.329Z,18.19
2023-02-26T19:18:36.710Z,18.16
2023-02-26T19:21:03.059Z,18.11
2023-02-26T19:23:29.593Z,18.08
2023-02-26T19:25:59.049Z,18.04
2023-02-26T19:28:26.629Z,18.01
2023-02-26T19:30:53.162Z,17.99
2023-02-26T19:33:20.382Z,18.00
2023-02-26T19:35:48.068Z,18.01
2023-02-26T19:38:16.582Z,17.98
2023-02-26T19:40:43.024Z,17.94
2023-02-26T19:43:09.363Z,17.94
2023-02-26T19:45:35.862Z,17.93
2023-02-26T19:48:02.262Z,17.91
2023-02-26T19:50:28.625Z,17.90
2023-02-26T19:52:55.014Z,17.87
2023-02-26T19:55:21.385Z,17.83
2023-02-26T19:57:49.261Z,17.80
2023-02-26T20:00:14.455Z,17.84
2023-02-26T20:02:40.962Z,17.83
2023-02-26T20:05:07.286Z,17.85
2023-02-26T20:07:33.677Z,17.84
2023-02-26T20:10:00.098Z,17.84
2023-02-26T20:12:26.602Z,17.84
2023-02-26T20:14:52.979Z,17.83
2023-02-26T20:17:19.321Z,17.78
2023-02-26T20:19:45.690Z,17.78
2023-02-26T20:22:13.193Z,17.78
2023-02-26T20:24:39.682Z,17.77
2023-02-26T20:27:06.075Z,17.75
2023-02-26T20:29:32.843Z,17.73
2023-02-26T20:31:59.384Z,17.73
2023-02-26T20:34:25.916Z,17.75
2023-02-26T20:36:54.546Z,17.76
2023-02-26T20:39:18.700Z,17.75
2023-02-26T20:41:45.058Z,17.76
2023-02-26T20:44:11.381Z,17.78
2023-02-26T20:46:37.816Z,17.80
2023-02-26T20:49:04.114Z,17.79
2023-02-26T20:51:30.513Z,17.79
2023-02-26T20:53:57.301Z,17.81
2023-02-26T20:56:23.691Z,17.82
2023-02-26T20:58:50.012Z,17.81
2023-02-26T21:01:16.358Z,17.80
2023-02-26T21:03:42.717Z,17.81
2023-02-26T21:06:09.063Z,17.81
2023-02-26T21:08:35.463Z,17.82
2023-02-26T21:11:02.060Z,17.80
2023-02-26T21:13:28.443Z,17.79
2023-02-26T21:15:57.340Z,17.83
2023-02-26T21:18:23.621Z,17.82
2023-02-26T21:20:49.962Z,17.80
2023-02-26T21:23:16.296Z,17.77
2023-02-26T21:25:42.657Z,17.77
2023-02-26T21:28:09.011Z,17.79
2023-02-26T21:30:35.388Z,17.79
2023-02-26T21:33:01.734Z,17.79
2023-02-26T21:35:28.088Z,17.80
2023-02-26T21:37:54.546Z,17.77
2023-02-26T21:40:20.866Z,17.81
2023-02-26T21:42:47.230Z,17.82
2023-02-26T21:45:13.603Z,17.85
2023-02-26T21:47:39.912Z,17.86
2023-02-26T21:50:06.288Z,17.83
2023-02-26T21:52:32.696Z,17.81
2023-02-26T21:54:59.039Z,17.80
2023-02-26T21:57:25.403Z,17.81
2023-02-26T21:59:51.834Z,17.87
2023-02-26T22:02:18.207Z,17.88
2023-02-26T22:04:44.553Z,17.87
2023-02-26T22:07:10.991Z,17.85
2023-02-26T22:09:37.338Z,17.82
2023-02-26T22:12:03.665Z,17.73
2023-02-26T22:14:30.124Z,17.70
2023-02-26T22:16:56.501Z,17.68
2023-02-26T22:19:22.856Z,17.68
2023-02-26T22:21:49.221Z,17.67
2023-02-26T22:24:15.594Z,17.70
2023-02-26T22:26:41.926Z,17.66
2023-02-26T22:29:08.321Z,17.62
2023-02-26T22:31:34.781Z,17.62
2023-02-26T22:34:01.075Z,17.60
2023-02-26T22:36:27.462Z,17.61
2023-02-26T22:38:53.744Z,17.63
2023-02-26T22:41:20.128Z,17.61
2023-02-26T22:43:46.466Z,17.62
2023-02-26T22:46:12.912Z,17.68
2023-02-26T22:48:39.240Z,17.73
2023-02-26T22:51:05.591Z,17.73
2023-02-26T22:53:31.932Z,17.70
2023-02-26T22:55:58.315Z,17.65
2023-02-26T22:58:24.630Z,17.57
2023-02-26T23:00:51.022Z,17.53
2023-02-26T23:03:17.358Z,17.48
2023-02-26T23:05:43.755Z,17.48
2023-02-26T23:08:10.091Z,17.48
2023-02-26T23:10:36.506Z,17.48
2023-02-26T23:13:02.828Z,17.47
2023-02-26T23:15:29.232Z,17.42
2023-02-26T23:17:55.592Z,17.45
2023-02-26T23:20:21.961Z,17.43
2023-02-26T23:22:48.308Z,17.39
2023-02-26T23:25:14.648Z,17.35
2023-02-26T23:27:41.004Z,17.37
2023-02-26T23:30:07.322Z,17.44
2023-02-26T23:32:33.736Z,17.46
2023-02-26T23:35:00.026Z,17.43
2023-02-26T23:37:26.411Z,17.39
2023-02-26T23:39:52.885Z,17.36
2023-02-26T23:42:19.202Z,17.26
2023-02-26T23:44:45.585Z,17.20
2023-02-26T23:47:11.914Z,17.21
2023-02-26T23:49:38.255Z,17.18
2023-02-26T23:52:04.577Z,17.17
2023-02-26T23:54:30.943Z,17.19
2023-02-26T23:56:57.263Z,17.18
2023-02-26T23:59:23.610Z,17.16
